Terminal Aerodrome Forecast
Issued by NWS Cleveland, OH

Home | Current Version | Previous Version | Graphics & Text | Print | Product List | Glossary On
Versions: 1 2 3 4 5 6 7 8 9 10 11 12 13 14 15 16 17
000
FTUS41 KCLE 312338
TAFERI
TAF
KERI 312338Z 0100/0124 04020G30KT 5SM -RA BR OVC003
     FM010400 02010G20KT 6SM BR OVC003
     FM011800 03012KT P6SM OVC008
     FM012200 03012KT P6SM OVC019=

USA.gov is the U.S. government's official web portal to all federal, state and local government web resources and services.